0TX1 – Local Weather Observations

Pecan Plantation

This weather station is operated by a private user located just north of the field. Data is gathered via OpenWeatherMap.org.

Last updated:
2019-09-17 13:01:09(8:01 am)

Temperature: 71.9 °F

Sunrise / Sunset: 7:14 am / 7:35 pm

Civil Dawn / Dusk: 6:50 am / 7:59 pm

Nearby METARs

KGDJ 171255Z AUTO 00000KT 10SM CLR 21/18 A3002 RMK AO2 T02140182

KCPT 171255Z AUTO 05005KT 10SM CLR 23/20 A3002 RMK AO2

KFWS 171246Z 00000KT 10SM CLR 21/19 A3002

KSEP 171255Z AUTO 00000KT 10SM CLR 21/18 A3004 RMK AO2 T02100180